sensor_id;sensor_type;location;lat;lon;timestamp;pressure;altitude;pressure_sealevel;temperature;humidity
14612;BME280;7392;52.078;11.650;2022-11-18T00:00:02;99355.97;;;3.12;100.00
14612;BME280;7392;52.078;11.650;2022-11-18T00:02:31;99362.97;;;3.12;100.00
14612;BME280;7392;52.078;11.650;2022-11-18T00:04:59;99364.72;;;3.11;100.00
14612;BME280;7392;52.078;11.650;2022-11-18T00:07:27;99362.94;;;3.10;100.00
14612;BME280;7392;52.078;11.650;2022-11-18T00:09:56;99366.47;;;3.09;100.00
14612;BME280;7392;52.078;11.650;2022-11-18T00:12:24;99375.19;;;3.10;100.00
14612;BME280;7392;52.078;11.650;2022-11-18T00:15:09;99369.06;;;3.08;100.00
14612;BME280;7392;52.078;11.650;2022-11-18T00:17:37;99369.94;;;3.07;100.00
14612;BME280;7392;52.078;11.650;2022-11-18T00:20:06;99384.81;;;3.06;100.00
14612;BME280;7392;52.078;11.650;2022-11-18T00:22:34;99383.03;;;3.07;100.00
14612;BME280;7392;52.078;11.650;2022-11-18T00:25:04;99376.03;;;3.06;100.00
14612;BME280;7392;52.078;11.650;2022-11-18T00:27:32;99378.66;;;3.06;100.00
14612;BME280;7392;52.078;11.650;2022-11-18T00:30:00;99383.03;;;3.05;100.00
14612;BME280;7392;52.078;11.650;2022-11-18T00:32:28;99388.28;;;3.05;100.00
14612;BME280;7392;52.078;11.650;2022-11-18T00:34:56;99383.91;;;3.04;100.00
14612;BME280;7392;52.078;11.650;2022-11-18T00:37:24;99391.78;;;3.04;100.00
14612;BME280;7392;52.078;11.650;2022-11-18T00:39:52;99385.63;;;3.04;100.00
14612;BME280;7392;52.078;11.650;2022-11-18T00:42:21;99390.03;;;3.05;100.00
14612;BME280;7392;52.078;11.650;2022-11-18T00:45:07;99387.41;;;3.03;100.00
14612;BME280;7392;52.078;11.650;2022-11-18T00:47:35;99382.16;;;3.03;100.00
14612;BME280;7392;52.078;11.650;2022-11-18T00:50:03;99379.53;;;3.03;100.00
14612;BME280;7392;52.078;11.650;2022-11-18T00:52:31;99372.50;;;3.02;100.00
14612;BME280;7392;52.078;11.650;2022-11-18T00:54:59;99376.88;;;3.02;100.00
14612;BME280;7392;52.078;11.650;2022-11-18T00:57:28;99373.41;;;3.01;100.00
14612;BME280;7392;52.078;11.650;2022-11-18T00:59:56;99376.88;;;3.02;100.00
14612;BME280;7392;52.078;11.650;2022-11-18T01:02:24;99376.00;;;2.99;100.00
14612;BME280;7392;52.078;11.650;2022-11-18T01:04:52;99380.38;;;2.99;100.00
14612;BME280;7392;52.078;11.650;2022-11-18T01:07:20;99368.13;;;2.98;100.00
14612;BME280;7392;52.078;11.650;2022-11-18T01:09:48;99376.84;;;2.97;100.00
14612;BME280;7392;52.078;11.650;2022-11-18T01:12:16;99374.22;;;2.95;100.00
14612;BME280;7392;52.078;11.650;2022-11-18T01:15:03;99371.59;;;2.95;100.00
14612;BME280;7392;52.078;11.650;2022-11-18T01:17:31;99368.09;;;2.95;100.00
14612;BME280;7392;52.078;11.650;2022-11-18T01:19:59;99375.09;;;2.94;100.00
14612;BME280;7392;52.078;11.650;2022-11-18T01:22:27;99370.72;;;2.93;100.00
14612;BME280;7392;52.078;11.650;2022-11-18T01:24:55;99376.84;;;2.95;100.00
14612;BME280;7392;52.078;11.650;2022-11-18T01:27:23;99382.09;;;2.94;100.00
14612;BME280;7392;52.078;11.650;2022-11-18T01:29:51;99373.34;;;2.93;100.00
14612;BME280;7392;52.078;11.650;2022-11-18T01:32:20;99370.72;;;2.93;100.00
14612;BME280;7392;52.078;11.650;2022-11-18T01:34:51;99375.09;;;2.94;100.00
14612;BME280;7392;52.078;11.650;2022-11-18T01:37:19;99376.84;;;2.94;100.00
14612;BME280;7392;52.078;11.650;2022-11-18T01:39:47;99389.97;;;2.94;100.00
14612;BME280;7392;52.078;11.650;2022-11-18T01:42:16;99383.81;;;2.92;100.00
14612;BME280;7392;52.078;11.650;2022-11-18T01:45:07;99387.34;;;2.92;100.00
14612;BME280;7392;52.078;11.650;2022-11-18T01:47:46;99386.44;;;2.92;100.00
14612;BME280;7392;52.078;11.650;2022-11-18T01:50:17;99394.28;;;2.90;100.00
14612;BME280;7392;52.078;11.650;2022-11-18T01:52:47;99396.03;;;2.88;100.00
14612;BME280;7392;52.078;11.650;2022-11-18T01:55:20;99396.91;;;2.87;100.00
14612;BME280;7392;52.078;11.650;2022-11-18T01:57:52;99396.00;;;2.87;100.00
14612;BME280;7392;52.078;11.650;2022-11-18T02:00:22;99399.53;;;2.86;100.00
14612;BME280;7392;52.078;11.650;2022-11-18T02:02:52;99407.38;;;2.84;100.00
14612;BME280;7392;52.078;11.650;2022-11-18T02:05:20;99407.34;;;2.83;100.00
14612;BME280;7392;52.078;11.650;2022-11-18T02:07:49;99414.34;;;2.80;100.00
14612;BME280;7392;52.078;11.650;2022-11-18T02:10:20;99412.56;;;2.79;100.00
14612;BME280;7392;52.078;11.650;2022-11-18T02:12:51;99417.78;;;2.78;100.00
14612;BME280;7392;52.078;11.650;2022-11-18T02:15:25;99411.66;;;2.76;100.00
14612;BME280;7392;52.078;11.650;2022-11-18T02:18:03;99413.41;;;2.75;100.00
14612;BME280;7392;52.078;11.650;2022-11-18T02:20:35;99424.75;;;2.74;100.00
14612;BME280;7392;52.078;11.650;2022-11-18T02:26:40;99433.50;;;2.73;100.00
14612;BME280;7392;52.078;11.650;2022-11-18T02:29:19;99423.84;;;2.71;100.00
14612;BME280;7392;52.078;11.650;2022-11-18T02:31:55;99423.00;;;2.70;100.00
14612;BME280;7392;52.078;11.650;2022-11-18T02:34:34;99429.09;;;2.69;100.00
14612;BME280;7392;52.078;11.650;2022-11-18T02:37:08;99422.97;;;2.67;100.00
14612;BME280;7392;52.078;11.650;2022-11-18T02:39:44;99421.19;;;2.66;100.00
14612;BME280;7392;52.078;11.650;2022-11-18T02:42:14;99417.69;;;2.66;100.00
14612;BME280;7392;52.078;11.650;2022-11-18T02:44:48;99424.69;;;2.65;100.00
14612;BME280;7392;52.078;11.650;2022-11-18T02:47:19;99418.56;;;2.63;100.00
14612;BME280;7392;52.078;11.650;2022-11-18T02:49:50;99429.88;;;2.60;100.00
14612;BME280;7392;52.078;11.650;2022-11-18T02:52:20;99422.03;;;2.60;100.00
14612;BME280;7392;52.078;11.650;2022-11-18T02:54:50;99432.50;;;2.59;100.00
14612;BME280;7392;52.078;11.650;2022-11-18T02:57:19;99428.09;;;2.58;100.00
14612;BME280;7392;52.078;11.650;2022-11-18T02:59:49;99430.75;;;2.56;100.00
14612;BME280;7392;52.078;11.650;2022-11-18T03:02:19;99436.81;;;2.54;100.00
14612;BME280;7392;52.078;11.650;2022-11-18T03:04:48;99443.81;;;2.53;100.00
14612;BME280;7392;52.078;11.650;2022-11-18T03:07:21;99433.28;;;2.50;100.00
14612;BME280;7392;52.078;11.650;2022-11-18T03:09:52;99427.16;;;2.48;100.00
14612;BME280;7392;52.078;11.650;2022-11-18T03:12:27;99439.38;;;2.46;100.00
14612;BME280;7392;52.078;11.650;2022-11-18T03:15:10;99438.47;;;2.46;100.00
14612;BME280;7392;52.078;11.650;2022-11-18T03:17:45;99436.75;;;2.45;100.00
14612;BME280;7392;52.078;11.650;2022-11-18T03:20:18;99440.22;;;2.43;100.00
14612;BME280;7392;52.078;11.650;2022-11-18T03:22:53;99441.06;;;2.44;100.00
14612;BME280;7392;52.078;11.650;2022-11-18T03:25:27;99447.19;;;2.41;100.00
14612;BME280;7392;52.078;11.650;2022-11-18T03:28:02;99451.56;;;2.41;100.00
14612;BME280;7392;52.078;11.650;2022-11-18T03:30:38;99454.13;;;2.38;100.00
14612;BME280;7392;52.078;11.650;2022-11-18T03:33:09;99461.13;;;2.36;100.00
14612;BME280;7392;52.078;11.650;2022-11-18T03:35:41;99465.47;;;2.37;100.00
14612;BME280;7392;52.078;11.650;2022-11-18T03:38:12;99462.81;;;2.34;100.00
14612;BME280;7392;52.078;11.650;2022-11-18T03:40:46;99472.44;;;2.33;100.00
14612;BME280;7392;52.078;11.650;2022-11-18T03:43:18;99468.03;;;2.31;100.00
14612;BME280;7392;52.078;11.650;2022-11-18T03:45:51;99462.81;;;2.31;100.00
14612;BME280;7392;52.078;11.650;2022-11-18T03:48:22;99471.50;;;2.30;100.00
14612;BME280;7392;52.078;11.650;2022-11-18T03:50:55;99479.38;;;2.30;100.00
14612;BME280;7392;52.078;11.650;2022-11-18T03:53:26;99486.34;;;2.28;100.00
14612;BME280;7392;52.078;11.650;2022-11-18T03:55:59;99495.06;;;2.27;100.00
14612;BME280;7392;52.078;11.650;2022-11-18T03:58:31;99500.28;;;2.25;100.00
14612;BME280;7392;52.078;11.650;2022-11-18T04:01:07;99504.66;;;2.24;100.00
14612;BME280;7392;52.078;11.650;2022-11-18T04:03:38;99494.16;;;2.23;100.00
14612;BME280;7392;52.078;11.650;2022-11-18T04:06:10;99500.25;;;2.23;100.00
14612;BME280;7392;52.078;11.650;2022-11-18T04:08:44;99506.34;;;2.21;100.00
14612;BME280;7392;52.078;11.650;2022-11-18T04:11:19;99506.34;;;2.21;100.00
14612;BME280;7392;52.078;11.650;2022-11-18T04:14:06;99511.59;;;2.21;100.00
14612;BME280;7392;52.078;11.650;2022-11-18T04:16:39;99513.34;;;2.20;100.00
14612;BME280;7392;52.078;11.650;2022-11-18T04:19:07;99511.56;;;2.19;100.00
14612;BME280;7392;52.078;11.650;2022-11-18T04:21:35;99511.56;;;2.18;100.00
14612;BME280;7392;52.078;11.650;2022-11-18T04:24:03;99516.75;;;2.16;100.00
14612;BME280;7392;52.078;11.650;2022-11-18T04:26:31;99528.13;;;2.17;100.00
14612;BME280;7392;52.078;11.650;2022-11-18T04:28:59;99529.00;;;2.16;100.00
14612;BME280;7392;52.078;11.650;2022-11-18T04:31:27;99529.84;;;2.15;100.00
14612;BME280;7392;52.078;11.650;2022-11-18T04:33:56;99529.81;;;2.13;100.00
14612;BME280;7392;52.078;11.650;2022-11-18T04:36:24;99527.19;;;2.12;100.00
14612;BME280;7392;52.078;11.650;2022-11-18T04:38:51;99542.91;;;2.12;100.00
14612;BME280;7392;52.078;11.650;2022-11-18T04:41:19;99535.03;;;2.09;100.00
14612;BME280;7392;52.078;11.650;2022-11-18T04:44:07;99541.13;;;2.08;100.00
14612;BME280;7392;52.078;11.650;2022-11-18T04:46:40;99545.47;;;2.05;100.00
14612;BME280;7392;52.078;11.650;2022-11-18T04:49:11;99541.94;;;2.03;100.00
14612;BME280;7392;52.078;11.650;2022-11-18T04:51:39;99542.75;;;2.01;100.00
14612;BME280;7392;52.078;11.650;2022-11-18T04:54:08;99536.63;;;1.99;100.00
14612;BME280;7392;52.078;11.650;2022-11-18T04:56:36;99537.47;;;1.98;100.00
14612;BME280;7392;52.078;11.650;2022-11-18T04:59:04;99536.56;;;1.94;100.00
14612;BME280;7392;52.078;11.650;2022-11-18T05:01:33;99535.69;;;1.94;100.00
14612;BME280;7392;52.078;11.650;2022-11-18T05:04:01;99542.66;;;1.92;100.00
14612;BME280;7392;52.078;11.650;2022-11-18T05:06:32;99540.00;;;1.89;100.00
14612;BME280;7392;52.078;11.650;2022-11-18T05:09:00;99537.31;;;1.85;100.00
14612;BME280;7392;52.078;11.650;2022-11-18T05:11:28;99542.50;;;1.82;100.00
14612;BME280;7392;52.078;11.650;2022-11-18T05:14:24;99553.84;;;1.81;100.00
14612;BME280;7392;52.078;11.650;2022-11-18T05:16:52;99555.56;;;1.79;100.00
14612;BME280;7392;52.078;11.650;2022-11-18T05:19:20;99559.03;;;1.78;100.00
14612;BME280;7392;52.078;11.650;2022-11-18T05:21:50;99563.38;;;1.76;100.00
14612;BME280;7392;52.078;11.650;2022-11-18T05:24:18;99565.97;;;1.75;100.00
14612;BME280;7392;52.078;11.650;2022-11-18T05:26:46;99558.06;;;1.72;100.00
14612;BME280;7392;52.078;11.650;2022-11-18T05:29:13;99560.63;;;1.68;100.00
14612;BME280;7392;52.078;11.650;2022-11-18T05:31:42;99561.50;;;1.67;100.00
14612;BME280;7392;52.078;11.650;2022-11-18T05:34:10;99572.84;;;1.66;100.00
14612;BME280;7392;52.078;11.650;2022-11-18T05:36:38;99585.91;;;1.65;100.00
14612;BME280;7392;52.078;11.650;2022-11-18T05:39:07;99579.75;;;1.63;100.00
14612;BME280;7392;52.078;11.650;2022-11-18T05:41:35;99591.03;;;1.60;100.00
14612;BME280;7392;52.078;11.650;2022-11-18T05:44:21;99591.91;;;1.58;100.00
14612;BME280;7392;52.078;11.650;2022-11-18T05:46:48;99583.16;;;1.56;100.00
14612;BME280;7392;52.078;11.650;2022-11-18T05:49:16;99588.34;;;1.54;100.00
14612;BME280;7392;52.078;11.650;2022-11-18T05:51:44;99593.59;;;1.54;100.00
14612;BME280;7392;52.078;11.650;2022-11-18T05:54:14;99590.06;;;1.54;100.00
14612;BME280;7392;52.078;11.650;2022-11-18T05:56:44;99585.72;;;1.53;100.00
14612;BME280;7392;52.078;11.650;2022-11-18T05:59:12;99594.41;;;1.52;100.00
14612;BME280;7392;52.078;11.650;2022-11-18T06:01:44;99595.28;;;1.51;100.00
14612;BME280;7392;52.078;11.650;2022-11-18T06:04:15;99597.88;;;1.49;100.00
14612;BME280;7392;52.078;11.650;2022-11-18T06:06:46;99600.44;;;1.46;100.00
14612;BME280;7392;52.078;11.650;2022-11-18T06:09:19;99598.63;;;1.43;100.00
14612;BME280;7392;52.078;11.650;2022-11-18T06:11:52;99603.00;;;1.43;100.00
14612;BME280;7392;52.078;11.650;2022-11-18T06:14:25;99607.34;;;1.42;100.00
14612;BME280;7392;52.078;11.650;2022-11-18T06:16:58;99605.56;;;1.41;100.00
14612;BME280;7392;52.078;11.650;2022-11-18T06:19:28;99616.88;;;1.39;100.00
14612;BME280;7392;52.078;11.650;2022-11-18T06:21:58;99618.59;;;1.38;100.00
14612;BME280;7392;52.078;11.650;2022-11-18T06:24:27;99616.84;;;1.36;100.00
14612;BME280;7392;52.078;11.650;2022-11-18T06:26:57;99624.69;;;1.36;100.00
14612;BME280;7392;52.078;11.650;2022-11-18T06:29:25;99635.97;;;1.35;100.00
14612;BME280;7392;52.078;11.650;2022-11-18T06:31:53;99635.97;;;1.33;100.00
14612;BME280;7392;52.078;11.650;2022-11-18T06:34:21;99638.56;;;1.33;100.00
14612;BME280;7392;52.078;11.650;2022-11-18T06:36:49;99637.69;;;1.33;100.00
14612;BME280;7392;52.078;11.650;2022-11-18T06:39:17;99642.00;;;1.29;100.00
14612;BME280;7392;52.078;11.650;2022-11-18T06:41:46;99648.06;;;1.28;100.00
14612;BME280;7392;52.078;11.650;2022-11-18T06:44:14;99654.19;;;1.27;100.00
14612;BME280;7392;52.078;11.650;2022-11-18T06:46:42;99642.81;;;1.26;100.00
14612;BME280;7392;52.078;11.650;2022-11-18T06:49:22;99650.66;;;1.25;100.00
14612;BME280;7392;52.078;11.650;2022-11-18T06:51:50;99650.59;;;1.22;100.00
14612;BME280;7392;52.078;11.650;2022-11-18T06:54:18;99662.78;;;1.21;100.00
14612;BME280;7392;52.078;11.650;2022-11-18T06:56:47;99664.53;;;1.21;100.00
14612;BME280;7392;52.078;11.650;2022-11-18T06:59:15;99670.63;;;1.20;100.00
14612;BME280;7392;52.078;11.650;2022-11-18T07:01:49;99674.94;;;1.19;100.00
14612;BME280;7392;52.078;11.650;2022-11-18T07:04:18;99674.88;;;1.16;100.00
14612;BME280;7392;52.078;11.650;2022-11-18T07:06:46;99687.09;;;1.16;100.00
14612;BME280;7392;52.078;11.650;2022-11-18T07:09:14;99686.22;;;1.15;100.00
14612;BME280;7392;52.078;11.650;2022-11-18T07:11:43;99686.19;;;1.14;100.00
14612;BME280;7392;52.078;11.650;2022-11-18T07:14:12;99684.44;;;1.14;100.00
14612;BME280;7392;52.078;11.650;2022-11-18T07:16:40;99687.88;;;1.10;100.00
14612;BME280;7392;52.078;11.650;2022-11-18T07:19:10;99694.00;;;1.12;100.00
14612;BME280;7392;52.078;11.650;2022-11-18T07:21:38;99693.13;;;1.11;100.00
14612;BME280;7392;52.078;11.650;2022-11-18T07:24:07;99689.63;;;1.09;100.00
14612;BME280;7392;52.078;11.650;2022-11-18T07:26:36;99695.69;;;1.08;100.00
14612;BME280;7392;52.078;11.650;2022-11-18T07:29:04;99692.13;;;1.05;100.00
14612;BME280;7392;52.078;11.650;2022-11-18T07:31:34;99698.19;;;1.04;100.00
14612;BME280;7392;52.078;11.650;2022-11-18T07:34:05;99705.09;;;1.00;100.00
14612;BME280;7392;52.078;11.650;2022-11-18T07:36:33;99713.81;;;0.99;100.00
14612;BME280;7392;52.078;11.650;2022-11-18T07:39:03;99722.50;;;0.98;100.00
14612;BME280;7392;52.078;11.650;2022-11-18T07:41:32;99723.31;;;0.96;100.00
14612;BME280;7392;52.078;11.650;2022-11-18T07:44:01;99723.31;;;0.96;100.00
14612;BME280;7392;52.078;11.650;2022-11-18T07:46:33;99721.56;;;0.95;100.00
14612;BME280;7392;52.078;11.650;2022-11-18T07:49:03;99736.38;;;0.94;100.00
14612;BME280;7392;52.078;11.650;2022-11-18T07:51:32;99734.59;;;0.93;100.00
14612;BME280;7392;52.078;11.650;2022-11-18T07:54:04;99747.69;;;0.93;100.00
14612;BME280;7392;52.078;11.650;2022-11-18T07:56:33;99744.19;;;0.92;100.00
14612;BME280;7392;52.078;11.650;2022-11-18T07:59:00;99749.34;;;0.89;100.00
14612;BME280;7392;52.078;11.650;2022-11-18T08:01:28;99747.59;;;0.90;100.00
14612;BME280;7392;52.078;11.650;2022-11-18T08:04:03;99756.25;;;0.86;100.00
14612;BME280;7392;52.078;11.650;2022-11-18T08:06:32;99754.47;;;0.85;100.00
14612;BME280;7392;52.078;11.650;2022-11-18T08:09:01;99755.34;;;0.84;100.00
14612;BME280;7392;52.078;11.650;2022-11-18T08:11:29;99757.06;;;0.83;100.00
14612;BME280;7392;52.078;11.650;2022-11-18T08:13:57;99767.50;;;0.83;100.00
14612;BME280;7392;52.078;11.650;2022-11-18T08:16:25;99772.75;;;0.83;100.00
14612;BME280;7392;52.078;11.650;2022-11-18T08:18:54;99779.72;;;0.83;100.00
14612;BME280;7392;52.078;11.650;2022-11-18T08:21:23;99780.53;;;0.82;100.00
14612;BME280;7392;52.078;11.650;2022-11-18T08:23:52;99784.03;;;0.81;100.00
14612;BME280;7392;52.078;11.650;2022-11-18T08:26:20;99785.72;;;0.79;100.00
14612;BME280;7392;52.078;11.650;2022-11-18T08:28:48;99783.09;;;0.77;100.00
14612;BME280;7392;52.078;11.650;2022-11-18T08:31:19;99790.88;;;0.76;100.00
14612;BME280;7392;52.078;11.650;2022-11-18T08:33:47;99795.22;;;0.75;100.00
14612;BME280;7392;52.078;11.650;2022-11-18T08:36:16;99796.06;;;0.74;100.00
14612;BME280;7392;52.078;11.650;2022-11-18T08:38:46;99803.91;;;0.74;100.00
14612;BME280;7392;52.078;11.650;2022-11-18T08:41:15;99809.94;;;0.71;100.00
14612;BME280;7392;52.078;11.650;2022-11-18T08:43:43;99817.75;;;0.68;100.00
14612;BME280;7392;52.078;11.650;2022-11-18T08:46:11;99811.59;;;0.68;100.00
14612;BME280;7392;52.078;11.650;2022-11-18T08:48:39;99808.13;;;0.67;100.00
14612;BME280;7392;52.078;11.650;2022-11-18T08:51:08;99813.38;;;0.69;100.00
14612;BME280;7392;52.078;11.650;2022-11-18T08:53:36;99820.34;;;0.68;100.00
14612;BME280;7392;52.078;11.650;2022-11-18T08:56:05;99813.34;;;0.67;100.00
14612;BME280;7392;52.078;11.650;2022-11-18T08:58:34;99819.44;;;0.68;100.00
14612;BME280;7392;52.078;11.650;2022-11-18T09:01:04;99823.81;;;0.67;100.00
14612;BME280;7392;52.078;11.650;2022-11-18T09:03:32;99823.72;;;0.64;100.00
14612;BME280;7392;52.078;11.650;2022-11-18T09:06:05;99841.13;;;0.62;100.00
14612;BME280;7392;52.078;11.650;2022-11-18T09:08:33;99845.44;;;0.60;100.00
14612;BME280;7392;52.078;11.650;2022-11-18T09:11:05;99835.78;;;0.58;100.00
14612;BME280;7392;52.078;11.650;2022-11-18T09:13:34;99847.03;;;0.55;100.00
14612;BME280;7392;52.078;11.650;2022-11-18T09:16:22;99853.06;;;0.52;100.00
14612;BME280;7392;52.078;11.650;2022-11-18T09:18:54;99853.91;;;0.50;100.00
14612;BME280;7392;52.078;11.650;2022-11-18T09:21:22;99863.44;;;0.49;100.00
14612;BME280;7392;52.078;11.650;2022-11-18T09:23:50;99869.50;;;0.47;100.00
14612;BME280;7392;52.078;11.650;2022-11-18T09:26:21;99866.00;;;0.46;100.00
14612;BME280;7392;52.078;11.650;2022-11-18T09:28:52;99870.28;;;0.44;100.00
14612;BME280;7392;52.078;11.650;2022-11-18T09:31:20;99870.25;;;0.43;100.00
14612;BME280;7392;52.078;11.650;2022-11-18T09:33:48;99878.94;;;0.42;100.00
14612;BME280;7392;52.078;11.650;2022-11-18T09:36:17;99878.91;;;0.40;100.00
14612;BME280;7392;52.078;11.650;2022-11-18T09:38:46;99883.25;;;0.40;100.00
14612;BME280;7392;52.078;11.650;2022-11-18T09:41:35;99881.44;;;0.37;100.00
14612;BME280;7392;52.078;11.650;2022-11-18T09:44:11;99885.78;;;0.36;100.00
14612;BME280;7392;52.078;11.650;2022-11-18T09:46:50;99883.97;;;0.34;100.00
14612;BME280;7392;52.078;11.650;2022-11-18T09:49:25;99882.25;;;0.34;100.00
14612;BME280;7392;52.078;11.650;2022-11-18T09:51:54;99890.88;;;0.32;100.00
14612;BME280;7392;52.078;11.650;2022-11-18T09:54:25;99889.13;;;0.32;100.00
14612;BME280;7392;52.078;11.650;2022-11-18T09:56:55;99885.63;;;0.30;100.00
14612;BME280;7392;52.078;11.650;2022-11-18T09:59:24;99889.97;;;0.30;100.00
14612;BME280;7392;52.078;11.650;2022-11-18T10:01:56;99889.91;;;0.28;100.00
14612;BME280;7392;52.078;11.650;2022-11-18T10:04:27;99894.28;;;0.28;100.00
14612;BME280;7392;52.078;11.650;2022-11-18T10:06:55;99897.72;;;0.27;100.00
14612;BME280;7392;52.078;11.650;2022-11-18T10:09:33;99912.50;;;0.26;100.00
14612;BME280;7392;52.078;11.650;2022-11-18T10:12:22;99900.31;;;0.27;100.00
14612;BME280;7392;52.078;11.650;2022-11-18T10:15:07;99899.44;;;0.26;100.00
14612;BME280;7392;52.078;11.650;2022-11-18T10:17:48;99910.78;;;0.27;100.00
14612;BME280;7392;52.078;11.650;2022-11-18T10:20:22;99914.25;;;0.26;100.00
14612;BME280;7392;52.078;11.650;2022-11-18T10:22:54;99908.94;;;0.23;100.00
14612;BME280;7392;52.078;11.650;2022-11-18T10:25:23;99917.56;;;0.20;100.00
14612;BME280;7392;52.078;11.650;2022-11-18T10:27:54;99926.25;;;0.19;100.00
14612;BME280;7392;52.078;11.650;2022-11-18T10:30:24;99927.91;;;0.17;100.00
14612;BME280;7392;52.078;11.650;2022-11-18T10:32:55;99928.78;;;0.16;100.00
14612;BME280;7392;52.078;11.650;2022-11-18T10:35:26;99940.06;;;0.15;100.00
14612;BME280;7392;52.078;11.650;2022-11-18T10:38:04;99943.59;;;0.15;100.00
14612;BME280;7392;52.078;11.650;2022-11-18T10:40:36;99942.63;;;0.13;100.00
14612;BME280;7392;52.078;11.650;2022-11-18T10:43:08;99947.84;;;0.13;100.00
14612;BME280;7392;52.078;11.650;2022-11-18T10:45:36;99953.06;;;0.13;100.00
14612;BME280;7392;52.078;11.650;2022-11-18T10:48:12;99949.63;;;0.14;100.00
14612;BME280;7392;52.078;11.650;2022-11-18T10:50:44;99954.00;;;0.14;100.00
14612;BME280;7392;52.078;11.650;2022-11-18T10:53:31;99956.56;;;0.12;100.00
14612;BME280;7392;52.078;11.650;2022-11-18T10:56:00;99955.69;;;0.13;100.00
14612;BME280;7392;52.078;11.650;2022-11-18T10:58:31;99959.22;;;0.14;100.00
14612;BME280;7392;52.078;11.650;2022-11-18T11:01:06;99960.09;;;0.14;100.00
14612;BME280;7392;52.078;11.650;2022-11-18T11:03:36;99965.34;;;0.16;100.00
14612;BME280;7392;52.078;11.650;2022-11-18T11:06:28;99968.84;;;0.16;100.00
14612;BME280;7392;52.078;11.650;2022-11-18T11:08:59;99960.97;;;0.15;100.00
14612;BME280;7392;52.078;11.650;2022-11-18T11:11:30;99964.44;;;0.14;100.00
14612;BME280;7392;52.078;11.650;2022-11-18T11:14:14;99967.91;;;0.14;100.00
14612;BME280;7392;52.078;11.650;2022-11-18T11:16:50;99974.94;;;0.15;100.00
14612;BME280;7392;52.078;11.650;2022-11-18T11:19:22;99978.28;;;0.11;100.00
14612;BME280;7392;52.078;11.650;2022-11-18T11:21:52;99975.66;;;0.11;100.00
14612;BME280;7392;52.078;11.650;2022-11-18T11:24:23;99980.84;;;0.10;100.00
14612;BME280;7392;52.078;11.650;2022-11-18T11:27:09;99988.59;;;0.07;100.00
14612;BME280;7392;52.078;11.650;2022-11-18T11:30:12;99994.66;;;0.06;100.00
14612;BME280;7392;52.078;11.650;2022-11-18T11:36:12;99999.75;;;0.01;100.00
14612;BME280;7392;52.078;11.650;2022-11-18T11:38:52;99993.59;;;-0.01;100.00
14612;BME280;7392;52.078;11.650;2022-11-18T11:41:38;99996.13;;;-0.04;100.00
14612;BME280;7392;52.078;11.650;2022-11-18T11:44:28;99996.94;;;-0.07;100.00
14612;BME280;7392;52.078;11.650;2022-11-18T11:47:07;99989.06;;;-0.08;100.00
14612;BME280;7392;52.078;11.650;2022-11-18T11:50:00;99999.44;;;-0.10;100.00
14612;BME280;7392;52.078;11.650;2022-11-18T11:52:35;100008.06;;;-0.12;100.00
14612;BME280;7392;52.078;11.650;2022-11-18T11:55:16;100002.78;;;-0.14;100.00
14612;BME280;7392;52.078;11.650;2022-11-18T11:57:58;100002.84;;;-0.12;100.00
14612;BME280;7392;52.078;11.650;2022-11-18T12:00:33;100006.25;;;-0.15;100.00
14612;BME280;7392;52.078;11.650;2022-11-18T12:03:13;100006.25;;;-0.15;100.00
14612;BME280;7392;52.078;11.650;2022-11-18T12:05:46;100019.31;;;-0.15;100.00
14612;BME280;7392;52.078;11.650;2022-11-18T12:08:16;100012.31;;;-0.16;100.00
14612;BME280;7392;52.078;11.650;2022-11-18T12:10:51;100019.31;;;-0.15;100.00
14612;BME280;7392;52.078;11.650;2022-11-18T12:13:25;100014.97;;;-0.14;100.00
14612;BME280;7392;52.078;11.650;2022-11-18T12:16:07;100014.97;;;-0.14;100.00
14612;BME280;7392;52.078;11.650;2022-11-18T12:18:41;100026.28;;;-0.14;100.00
14612;BME280;7392;52.078;11.650;2022-11-18T12:24:34;100022.75;;;-0.16;100.00
14612;BME280;7392;52.078;11.650;2022-11-18T12:27:11;100022.75;;;-0.16;100.00
14612;BME280;7392;52.078;11.650;2022-11-18T12:29:52;100029.75;;;-0.15;100.00
14612;BME280;7392;52.078;11.650;2022-11-18T12:32:33;100034.94;;;-0.16;100.00
14612;BME280;7392;52.078;11.650;2022-11-18T12:35:21;100039.22;;;-0.18;100.00
14612;BME280;7392;52.078;11.650;2022-11-18T12:37:58;100044.34;;;-0.22;100.00
14612;BME280;7392;52.078;11.650;2022-11-18T12:40:44;100053.91;;;-0.22;100.00
14612;BME280;7392;52.078;11.650;2022-11-18T12:46:54;100042.44;;;-0.27;100.00
14612;BME280;7392;52.078;11.650;2022-11-18T12:52:49;100061.41;;;-0.33;100.00
14612;BME280;7392;52.078;11.650;2022-11-18T12:55:23;100057.91;;;-0.33;100.00
14612;BME280;7392;52.078;11.650;2022-11-18T12:57:51;100056.13;;;-0.34;100.00
14612;BME280;7392;52.078;11.650;2022-11-18T13:00:33;100061.34;;;-0.34;100.00
14612;BME280;7392;52.078;11.650;2022-11-18T13:03:25;100077.00;;;-0.34;100.00
14612;BME280;7392;52.078;11.650;2022-11-18T13:06:01;100068.34;;;-0.33;100.00
14612;BME280;7392;52.078;11.650;2022-11-18T13:08:31;100071.72;;;-0.36;100.00
14612;BME280;7392;52.078;11.650;2022-11-18T13:11:06;100076.94;;;-0.36;100.00
14612;BME280;7392;52.078;11.650;2022-11-18T13:13:53;100083.09;;;-0.35;100.00
14612;BME280;7392;52.078;11.650;2022-11-18T13:16:36;100082.16;;;-0.38;100.00
14612;BME280;7392;52.078;11.650;2022-11-18T13:19:22;100072.53;;;-0.39;100.00
14612;BME280;7392;52.078;11.650;2022-11-18T13:21:53;100081.91;;;-0.45;100.00
14612;BME280;7392;52.078;11.650;2022-11-18T13:24:44;100082.69;;;-0.48;100.00
14612;BME280;7392;52.078;11.650;2022-11-18T13:27:23;100086.09;;;-0.50;100.00
14612;BME280;7392;52.078;11.650;2022-11-18T13:30:00;100097.28;;;-0.54;100.00
14612;BME280;7392;52.078;11.650;2022-11-18T13:32:29;100100.69;;;-0.55;100.00
14612;BME280;7392;52.078;11.650;2022-11-18T13:35:03;100111.88;;;-0.60;100.00
14612;BME280;7392;52.078;11.650;2022-11-18T13:37:34;100112.66;;;-0.62;100.00
14612;BME280;7392;52.078;11.650;2022-11-18T13:40:14;100119.59;;;-0.63;100.00